sensor_id;sensor_type;location;lat;lon;timestamp;P1;durP1;ratioP1;P2;durP2;ratioP2
33459;SDS011;19795;53.160;6.612;2023-09-30T06:57:36;1999.90;;;999.90;;
33459;SDS011;19795;53.160;6.612;2023-09-30T07:00:06;1999.90;;;999.90;;
33459;SDS011;19795;53.160;6.612;2023-09-30T07:02:34;1999.90;;;999.90;;
33459;SDS011;19795;53.160;6.612;2023-09-30T07:05:01;1999.90;;;999.90;;
33459;SDS011;19795;53.160;6.612;2023-09-30T07:07:30;1999.90;;;999.90;;
33459;SDS011;19795;53.160;6.612;2023-09-30T07:10:00;1999.90;;;999.90;;
33459;SDS011;19795;53.160;6.612;2023-09-30T07:12:25;1999.90;;;999.90;;
33459;SDS011;19795;53.160;6.612;2023-09-30T07:14:51;1999.90;;;999.90;;
33459;SDS011;19795;53.160;6.612;2023-09-30T07:17:17;1999.90;;;999.90;;
33459;SDS011;19795;53.160;6.612;2023-09-30T07:19:43;1999.90;;;999.90;;
33459;SDS011;19795;53.160;6.612;2023-09-30T07:22:09;1999.90;;;999.90;;
33459;SDS011;19795;53.160;6.612;2023-09-30T07:24:34;1999.90;;;999.90;;
33459;SDS011;19795;53.160;6.612;2023-09-30T07:27:00;1999.90;;;999.90;;
33459;SDS011;19795;53.160;6.612;2023-09-30T07:29:27;1999.90;;;999.90;;
33459;SDS011;19795;53.160;6.612;2023-09-30T07:31:52;1999.90;;;999.90;;
33459;SDS011;19795;53.160;6.612;2023-09-30T07:34:18;1999.90;;;999.90;;
33459;SDS011;19795;53.160;6.612;2023-09-30T07:36:44;1999.90;;;999.90;;
33459;SDS011;19795;53.160;6.612;2023-09-30T07:39:09;1999.90;;;999.90;;
33459;SDS011;19795;53.160;6.612;2023-09-30T07:41:35;1999.90;;;999.90;;
33459;SDS011;19795;53.160;6.612;2023-09-30T07:44:03;1999.90;;;999.90;;
33459;SDS011;19795;53.160;6.612;2023-09-30T07:46:30;1999.90;;;999.90;;
33459;SDS011;19795;53.160;6.612;2023-09-30T07:48:56;1999.90;;;999.90;;
33459;SDS011;19795;53.160;6.612;2023-09-30T07:51:23;1999.90;;;999.90;;
33459;SDS011;19795;53.160;6.612;2023-09-30T07:53:49;1999.90;;;999.90;;
33459;SDS011;19795;53.160;6.612;2023-09-30T07:56:15;1999.90;;;999.90;;
33459;SDS011;19795;53.160;6.612;2023-09-30T07:58:41;1999.90;;;999.90;;
33459;SDS011;19795;53.160;6.612;2023-09-30T08:01:09;1999.90;;;999.90;;
33459;SDS011;19795;53.160;6.612;2023-09-30T08:03:35;1999.90;;;999.90;;
33459;SDS011;19795;53.160;6.612;2023-09-30T08:06:02;1999.90;;;999.90;;
33459;SDS011;19795;53.160;6.612;2023-09-30T08:08:28;1999.90;;;999.90;;
33459;SDS011;19795;53.160;6.612;2023-09-30T08:10:54;1999.90;;;999.90;;
33459;SDS011;19795;53.160;6.612;2023-09-30T08:13:22;1075.95;;;528.45;;
33459;SDS011;19795;53.160;6.612;2023-09-30T08:15:49;1999.90;;;999.90;;
33459;SDS011;19795;53.160;6.612;2023-09-30T08:18:15;579.28;;;304.27;;
33459;SDS011;19795;53.160;6.612;2023-09-30T08:20:41;966.47;;;626.33;;
33459;SDS011;19795;53.160;6.612;2023-09-30T08:23:07;1173.43;;;761.53;;
33459;SDS011;19795;53.160;6.612;2023-09-30T08:25:33;1089.85;;;881.08;;
33459;SDS011;19795;53.160;6.612;2023-09-30T08:27:58;1241.28;;;916.47;;
33459;SDS011;19795;53.160;6.612;2023-09-30T08:30:24;1114.45;;;911.00;;
33459;SDS011;19795;53.160;6.612;2023-09-30T08:32:49;1027.70;;;915.95;;
33459;SDS011;19795;53.160;6.612;2023-09-30T08:35:15;1043.15;;;933.47;;
33459;SDS011;19795;53.160;6.612;2023-09-30T08:37:41;1022.15;;;919.97;;
33459;SDS011;19795;53.160;6.612;2023-09-30T08:40:06;991.72;;;897.97;;
33459;SDS011;19795;53.160;6.612;2023-09-30T08:42:34;985.20;;;893.78;;
33459;SDS011;19795;53.160;6.612;2023-09-30T08:45:00;967.20;;;879.15;;
33459;SDS011;19795;53.160;6.612;2023-09-30T08:47:27;914.75;;;837.08;;
33459;SDS011;19795;53.160;6.612;2023-09-30T08:49:53;993.95;;;901.80;;
33459;SDS011;19795;53.160;6.612;2023-09-30T08:52:22;986.22;;;895.85;;
33459;SDS011;19795;53.160;6.612;2023-09-30T08:54:49;968.40;;;881.92;;
33459;SDS011;19795;53.160;6.612;2023-09-30T08:57:15;934.67;;;855.78;;
33459;SDS011;19795;53.160;6.612;2023-09-30T08:59:44;989.72;;;898.40;;
33459;SDS011;19795;53.160;6.612;2023-09-30T09:02:11;963.55;;;876.75;;
33459;SDS011;19795;53.160;6.612;2023-09-30T09:04:37;944.60;;;864.17;;
33459;SDS011;19795;53.160;6.612;2023-09-30T09:07:03;878.58;;;811.22;;
33459;SDS011;19795;53.160;6.612;2023-09-30T09:09:28;871.33;;;803.08;;
33459;SDS011;19795;53.160;6.612;2023-09-30T09:11:56;926.70;;;849.35;;
33459;SDS011;19795;53.160;6.612;2023-09-30T09:17:05;871.65;;;802.75;;
33459;SDS011;19795;53.160;6.612;2023-09-30T09:19:32;773.10;;;719.80;;
33459;SDS011;19795;53.160;6.612;2023-09-30T09:22:01;703.67;;;656.78;;
33459;SDS011;19795;53.160;6.612;2023-09-30T09:27:08;639.97;;;600.90;;
33459;SDS011;19795;53.160;6.612;2023-09-30T09:29:39;764.95;;;712.67;;
33459;SDS011;19795;53.160;6.612;2023-09-30T09:32:12;696.25;;;651.67;;
33459;SDS011;19795;53.160;6.612;2023-09-30T09:34:39;614.25;;;577.88;;
33459;SDS011;19795;53.160;6.612;2023-09-30T09:37:18;637.30;;;599.00;;
33459;SDS011;19795;53.160;6.612;2023-09-30T09:39:52;661.10;;;620.63;;
33459;SDS011;19795;53.160;6.612;2023-09-30T09:42:31;598.40;;;563.20;;
33459;SDS011;19795;53.160;6.612;2023-09-30T09:44:59;549.05;;;518.30;;
33459;SDS011;19795;53.160;6.612;2023-09-30T09:47:29;553.40;;;521.67;;
33459;SDS011;19795;53.160;6.612;2023-09-30T09:49:56;527.05;;;496.77;;
33459;SDS011;19795;53.160;6.612;2023-09-30T09:52:24;523.10;;;493.70;;
33459;SDS011;19795;53.160;6.612;2023-09-30T09:54:50;389.73;;;368.33;;
33459;SDS011;19795;53.160;6.612;2023-09-30T09:57:19;436.98;;;412.70;;
33459;SDS011;19795;53.160;6.612;2023-09-30T09:59:45;580.60;;;547.08;;
33459;SDS011;19795;53.160;6.612;2023-09-30T10:02:16;709.75;;;663.33;;
33459;SDS011;19795;53.160;6.612;2023-09-30T10:04:43;761.20;;;709.70;;
33459;SDS011;19795;53.160;6.612;2023-09-30T10:07:10;736.97;;;687.85;;
33459;SDS011;19795;53.160;6.612;2023-09-30T10:09:50;725.72;;;677.92;;
33459;SDS011;19795;53.160;6.612;2023-09-30T10:12:18;753.78;;;703.95;;
33459;SDS011;19795;53.160;6.612;2023-09-30T10:14:46;690.50;;;645.90;;
33459;SDS011;19795;53.160;6.612;2023-09-30T10:17:12;701.42;;;656.42;;
33459;SDS011;19795;53.160;6.612;2023-09-30T10:20:23;682.03;;;638.22;;
33459;SDS011;19795;53.160;6.612;2023-09-30T10:22:34;736.70;;;687.20;;
33459;SDS011;19795;53.160;6.612;2023-09-30T10:25:00;745.83;;;695.80;;
33459;SDS011;19795;53.160;6.612;2023-09-30T10:27:29;753.85;;;702.10;;
33459;SDS011;19795;53.160;6.612;2023-09-30T10:35:18;739.33;;;690.28;;
33459;SDS011;19795;53.160;6.612;2023-09-30T10:37:45;718.50;;;671.13;;
33459;SDS011;19795;53.160;6.612;2023-09-30T10:40:27;653.95;;;612.47;;
33459;SDS011;19795;53.160;6.612;2023-09-30T10:42:54;729.05;;;681.13;;
33459;SDS011;19795;53.160;6.612;2023-09-30T10:50:56;728.40;;;680.10;;
33459;SDS011;19795;53.160;6.612;2023-09-30T10:53:51;731.88;;;683.42;;
33459;SDS011;19795;53.160;6.612;2023-09-30T10:56:21;721.15;;;673.40;;
33459;SDS011;19795;53.160;6.612;2023-09-30T10:58:48;733.35;;;685.65;;
33459;SDS011;19795;53.160;6.612;2023-09-30T11:01:15;679.72;;;637.17;;
33459;SDS011;19795;53.160;6.612;2023-09-30T11:03:45;703.80;;;658.05;;
33459;SDS011;19795;53.160;6.612;2023-09-30T11:06:15;721.53;;;673.25;;
33459;SDS011;19795;53.160;6.612;2023-09-30T11:08:58;820.65;;;761.35;;
33459;SDS011;19795;53.160;6.612;2023-09-30T11:11:35;831.72;;;769.72;;
33459;SDS011;19795;53.160;6.612;2023-09-30T11:14:02;895.45;;;823.72;;
33459;SDS011;19795;53.160;6.612;2023-09-30T11:16:39;957.03;;;874.17;;
33459;SDS011;19795;53.160;6.612;2023-09-30T11:19:06;887.00;;;818.33;;
33459;SDS011;19795;53.160;6.612;2023-09-30T11:21:33;794.15;;;736.58;;
33459;SDS011;19795;53.160;6.612;2023-09-30T11:24:00;715.83;;;668.55;;
33459;SDS011;19795;53.160;6.612;2023-09-30T11:26:30;686.65;;;643.25;;
33459;SDS011;19795;53.160;6.612;2023-09-30T11:31:52;657.22;;;616.50;;
33459;SDS011;19795;53.160;6.612;2023-09-30T11:34:18;633.80;;;596.00;;
33459;SDS011;19795;53.160;6.612;2023-09-30T11:36:51;627.40;;;590.20;;
33459;SDS011;19795;53.160;6.612;2023-09-30T11:41:54;661.15;;;620.20;;
33459;SDS011;19795;53.160;6.612;2023-09-30T11:44:22;662.97;;;621.88;;
33459;SDS011;19795;53.160;6.612;2023-09-30T11:46:48;719.58;;;672.72;;
33459;SDS011;19795;53.160;6.612;2023-09-30T11:51:52;870.60;;;804.22;;
33459;SDS011;19795;53.160;6.612;2023-09-30T11:54:17;937.90;;;860.13;;
33459;SDS011;19795;53.160;6.612;2023-09-30T11:56:43;988.30;;;897.75;;
33459;SDS011;19795;53.160;6.612;2023-09-30T11:59:10;1029.97;;;925.65;;
33459;SDS011;19795;53.160;6.612;2023-09-30T12:01:39;1040.22;;;930.28;;
33459;SDS011;19795;53.160;6.612;2023-09-30T12:04:05;1066.57;;;953.15;;
33459;SDS011;19795;53.160;6.612;2023-09-30T12:06:31;1113.50;;;944.03;;
33459;SDS011;19795;53.160;6.612;2023-09-30T12:08:59;1130.43;;;879.58;;
33459;SDS011;19795;53.160;6.612;2023-09-30T12:11:25;1225.63;;;888.22;;
33459;SDS011;19795;53.160;6.612;2023-09-30T12:13:50;1300.70;;;882.90;;
33459;SDS011;19795;53.160;6.612;2023-09-30T12:16:17;1254.65;;;739.28;;
33459;SDS011;19795;53.160;6.612;2023-09-30T12:18:43;1235.75;;;732.13;;
33459;SDS011;19795;53.160;6.612;2023-09-30T12:21:10;1161.30;;;763.53;;
33459;SDS011;19795;53.160;6.612;2023-09-30T12:23:38;1178.22;;;842.22;;
33459;SDS011;19795;53.160;6.612;2023-09-30T12:26:04;989.75;;;891.10;;
33459;SDS011;19795;53.160;6.612;2023-09-30T12:28:33;951.10;;;863.38;;
33459;SDS011;19795;53.160;6.612;2023-09-30T12:31:00;836.85;;;772.10;;
33459;SDS011;19795;53.160;6.612;2023-09-30T12:33:30;824.42;;;762.95;;
33459;SDS011;19795;53.160;6.612;2023-09-30T12:35:57;834.97;;;771.67;;
33459;SDS011;19795;53.160;6.612;2023-09-30T12:38:24;691.95;;;648.00;;
33459;SDS011;19795;53.160;6.612;2023-09-30T12:40:54;772.03;;;718.42;;
33459;SDS011;19795;53.160;6.612;2023-09-30T12:43:20;738.67;;;688.58;;
33459;SDS011;19795;53.160;6.612;2023-09-30T12:45:46;761.65;;;709.38;;
33459;SDS011;19795;53.160;6.612;2023-09-30T12:48:12;736.05;;;687.63;;
33459;SDS011;19795;53.160;6.612;2023-09-30T12:50:39;754.20;;;702.88;;
33459;SDS011;19795;53.160;6.612;2023-09-30T12:53:06;742.67;;;692.45;;
33459;SDS011;19795;53.160;6.612;2023-09-30T12:55:31;796.50;;;740.53;;
33459;SDS011;19795;53.160;6.612;2023-09-30T12:57:57;679.00;;;636.75;;
33459;SDS011;19795;53.160;6.612;2023-09-30T13:00:24;676.13;;;633.30;;
33459;SDS011;19795;53.160;6.612;2023-09-30T13:02:51;816.35;;;759.72;;
33459;SDS011;19795;53.160;6.612;2023-09-30T13:05:17;737.60;;;687.78;;
33459;SDS011;19795;53.160;6.612;2023-09-30T13:07:43;730.08;;;682.90;;
33459;SDS011;19795;53.160;6.612;2023-09-30T13:10:08;752.85;;;702.47;;
33459;SDS011;19795;53.160;6.612;2023-09-30T13:12:35;703.70;;;658.25;;
33459;SDS011;19795;53.160;6.612;2023-09-30T13:15:00;699.28;;;652.40;;
33459;SDS011;19795;53.160;6.612;2023-09-30T13:17:27;694.88;;;649.63;;
33459;SDS011;19795;53.160;6.612;2023-09-30T13:19:53;688.13;;;644.70;;
33459;SDS011;19795;53.160;6.612;2023-09-30T13:22:20;657.50;;;617.63;;
33459;SDS011;19795;53.160;6.612;2023-09-30T13:24:46;553.50;;;521.60;;
33459;SDS011;19795;53.160;6.612;2023-09-30T13:27:11;589.80;;;556.25;;
33459;SDS011;19795;53.160;6.612;2023-09-30T13:29:40;556.47;;;524.17;;
33459;SDS011;19795;53.160;6.612;2023-09-30T13:32:06;583.95;;;550.72;;
33459;SDS011;19795;53.160;6.612;2023-09-30T13:34:34;640.05;;;602.65;;
33459;SDS011;19795;53.160;6.612;2023-09-30T13:36:59;553.65;;;521.58;;
33459;SDS011;19795;53.160;6.612;2023-09-30T13:39:25;472.33;;;446.70;;
33459;SDS011;19795;53.160;6.612;2023-09-30T13:41:50;525.60;;;495.77;;
33459;SDS011;19795;53.160;6.612;2023-09-30T13:44:16;596.38;;;561.13;;
33459;SDS011;19795;53.160;6.612;2023-09-30T13:46:43;612.80;;;577.40;;
33459;SDS011;19795;53.160;6.612;2023-09-30T13:49:09;564.47;;;531.50;;
33459;SDS011;19795;53.160;6.612;2023-09-30T13:51:34;622.15;;;584.55;;
33459;SDS011;19795;53.160;6.612;2023-09-30T13:54:00;738.22;;;689.08;;
33459;SDS011;19795;53.160;6.612;2023-09-30T13:56:26;661.22;;;620.47;;
33459;SDS011;19795;53.160;6.612;2023-09-30T13:58:52;630.80;;;592.17;;
33459;SDS011;19795;53.160;6.612;2023-09-30T14:01:18;691.65;;;647.45;;
33459;SDS011;19795;53.160;6.612;2023-09-30T14:03:45;630.97;;;592.97;;
33459;SDS011;19795;53.160;6.612;2023-09-30T14:06:12;702.58;;;657.20;;
33459;SDS011;19795;53.160;6.612;2023-09-30T14:08:39;595.92;;;560.67;;
33459;SDS011;19795;53.160;6.612;2023-09-30T14:11:07;617.22;;;581.38;;
33459;SDS011;19795;53.160;6.612;2023-09-30T14:13:34;590.13;;;556.33;;
33459;SDS011;19795;53.160;6.612;2023-09-30T14:16:00;607.72;;;572.15;;
33459;SDS011;19795;53.160;6.612;2023-09-30T14:18:26;592.63;;;557.17;;
33459;SDS011;19795;53.160;6.612;2023-09-30T14:20:52;612.72;;;576.78;;
33459;SDS011;19795;53.160;6.612;2023-09-30T14:23:18;634.53;;;596.70;;
33459;SDS011;19795;53.160;6.612;2023-09-30T14:25:44;670.22;;;628.22;;
33459;SDS011;19795;53.160;6.612;2023-09-30T14:28:09;709.08;;;664.05;;
33459;SDS011;19795;53.160;6.612;2023-09-30T14:30:35;676.42;;;633.67;;
33459;SDS011;19795;53.160;6.612;2023-09-30T14:33:01;748.33;;;698.35;;
33459;SDS011;19795;53.160;6.612;2023-09-30T14:35:28;737.03;;;687.25;;
33459;SDS011;19795;53.160;6.612;2023-09-30T14:37:54;668.67;;;626.17;;
33459;SDS011;19795;53.160;6.612;2023-09-30T14:40:19;674.65;;;632.50;;
33459;SDS011;19795;53.160;6.612;2023-09-30T14:42:45;641.80;;;601.72;;
33459;SDS011;19795;53.160;6.612;2023-09-30T14:45:11;650.78;;;610.95;;
33459;SDS011;19795;53.160;6.612;2023-09-30T14:47:37;625.33;;;588.15;;
33459;SDS011;19795;53.160;6.612;2023-09-30T14:50:05;604.58;;;569.30;;
33459;SDS011;19795;53.160;6.612;2023-09-30T14:52:32;601.88;;;565.95;;
33459;SDS011;19795;53.160;6.612;2023-09-30T14:54:58;624.78;;;587.08;;
33459;SDS011;19795;53.160;6.612;2023-09-30T14:57:23;682.40;;;640.75;;
33459;SDS011;19795;53.160;6.612;2023-09-30T14:59:50;658.78;;;618.30;;
33459;SDS011;19795;53.160;6.612;2023-09-30T15:02:15;644.28;;;604.70;;
33459;SDS011;19795;53.160;6.612;2023-09-30T15:04:41;693.15;;;649.25;;
33459;SDS011;19795;53.160;6.612;2023-09-30T15:07:07;679.65;;;636.60;;
33459;SDS011;19795;53.160;6.612;2023-09-30T15:09:32;716.95;;;669.92;;
33459;SDS011;19795;53.160;6.612;2023-09-30T15:11:58;730.88;;;681.75;;
33459;SDS011;19795;53.160;6.612;2023-09-30T15:14:24;771.90;;;718.92;;
33459;SDS011;19795;53.160;6.612;2023-09-30T15:16:49;768.50;;;715.08;;
33459;SDS011;19795;53.160;6.612;2023-09-30T15:19:15;845.97;;;782.58;;
33459;SDS011;19795;53.160;6.612;2023-09-30T15:21:41;842.60;;;779.30;;
33459;SDS011;19795;53.160;6.612;2023-09-30T15:24:06;813.70;;;754.50;;
33459;SDS011;19795;53.160;6.612;2023-09-30T15:26:33;899.38;;;828.15;;
33459;SDS011;19795;53.160;6.612;2023-09-30T15:29:00;927.50;;;850.42;;
33459;SDS011;19795;53.160;6.612;2023-09-30T15:31:43;946.53;;;865.38;;
33459;SDS011;19795;53.160;6.612;2023-09-30T15:34:09;953.95;;;873.50;;
33459;SDS011;19795;53.160;6.612;2023-09-30T15:36:36;934.05;;;855.70;;
33459;SDS011;19795;53.160;6.612;2023-09-30T15:39:03;891.03;;;819.85;;
33459;SDS011;19795;53.160;6.612;2023-09-30T15:41:29;942.88;;;862.92;;
33459;SDS011;19795;53.160;6.612;2023-09-30T15:43:57;902.38;;;828.85;;
33459;SDS011;19795;53.160;6.612;2023-09-30T15:46:24;919.78;;;843.53;;
33459;SDS011;19795;53.160;6.612;2023-09-30T15:48:50;965.45;;;883.17;;
33459;SDS011;19795;53.160;6.612;2023-09-30T15:51:15;975.97;;;888.85;;
33459;SDS011;19795;53.160;6.612;2023-09-30T15:53:41;1002.45;;;909.67;;
33459;SDS011;19795;53.160;6.612;2023-09-30T15:56:06;987.60;;;894.35;;
33459;SDS011;19795;53.160;6.612;2023-09-30T15:58:32;1001.70;;;905.85;;
33459;SDS011;19795;53.160;6.612;2023-09-30T16:00:58;1049.18;;;940.50;;
33459;SDS011;19795;53.160;6.612;2023-09-30T16:03:25;1044.60;;;932.33;;
33459;SDS011;19795;53.160;6.612;2023-09-30T16:05:51;1050.82;;;938.45;;
33459;SDS011;19795;53.160;6.612;2023-09-30T16:08:17;1078.15;;;951.70;;
33459;SDS011;19795;53.160;6.612;2023-09-30T16:10:44;1187.90;;;964.47;;
33459;SDS011;19795;53.160;6.612;2023-09-30T16:13:10;1218.45;;;956.55;;
33459;SDS011;19795;53.160;6.612;2023-09-30T16:15:39;1251.45;;;857.75;;
33459;SDS011;19795;53.160;6.612;2023-09-30T16:18:06;1098.32;;;741.00;;
33459;SDS011;19795;53.160;6.612;2023-09-30T16:20:33;1068.68;;;665.17;;
33459;SDS011;19795;53.160;6.612;2023-09-30T16:22:59;1108.45;;;642.45;;
33459;SDS011;19795;53.160;6.612;2023-09-30T16:25:25;888.63;;;484.38;;
33459;SDS011;19795;53.160;6.612;2023-09-30T16:27:51;741.45;;;371.65;;
33459;SDS011;19795;53.160;6.612;2023-09-30T16:30:19;1687.20;;;839.85;;
33459;SDS011;19795;53.160;6.612;2023-09-30T16:32:45;487.15;;;238.35;;
33459;SDS011;19795;53.160;6.612;2023-09-30T16:35:14;833.97;;;398.92;;
33459;SDS011;19795;53.160;6.612;2023-09-30T16:37:40;1999.90;;;999.90;;
33459;SDS011;19795;53.160;6.612;2023-09-30T16:40:07;410.95;;;189.45;;
33459;SDS011;19795;53.160;6.612;2023-09-30T16:42:33;1999.90;;;999.90;;
33459;SDS011;19795;53.160;6.612;2023-09-30T16:44:59;1559.18;;;770.53;;
33459;SDS011;19795;53.160;6.612;2023-09-30T16:47:25;1023.30;;;511.33;;
33459;SDS011;19795;53.160;6.612;2023-09-30T16:49:51;1999.90;;;999.90;;
33459;SDS011;19795;53.160;6.612;2023-09-30T16:52:17;1528.57;;;759.75;;
33459;SDS011;19795;53.160;6.612;2023-09-30T16:54:42;1999.90;;;999.90;;
33459;SDS011;19795;53.160;6.612;2023-09-30T16:57:08;1999.90;;;999.90;;
33459;SDS011;19795;53.160;6.612;2023-09-30T16:59:34;1999.90;;;999.90;;
33459;SDS011;19795;53.160;6.612;2023-09-30T17:02:00;1999.90;;;999.90;;
33459;SDS011;19795;53.160;6.612;2023-09-30T17:04:25;1999.90;;;999.90;;
33459;SDS011;19795;53.160;6.612;2023-09-30T17:06:52;1999.90;;;999.90;;
33459;SDS011;19795;53.160;6.612;2023-09-30T17:09:18;1999.90;;;999.90;;
33459;SDS011;19795;53.160;6.612;2023-09-30T17:11:44;1999.90;;;999.90;;
33459;SDS011;19795;53.160;6.612;2023-09-30T17:14:09;1999.90;;;999.90;;
33459;SDS011;19795;53.160;6.612;2023-09-30T17:16:36;1999.90;;;999.90;;
33459;SDS011;19795;53.160;6.612;2023-09-30T17:19:02;1999.90;;;999.90;;
33459;SDS011;19795;53.160;6.612;2023-09-30T17:21:28;1999.90;;;999.90;;
33459;SDS011;19795;53.160;6.612;2023-09-30T17:23:53;1999.90;;;999.90;;
33459;SDS011;19795;53.160;6.612;2023-09-30T17:26:20;1999.90;;;999.90;;
33459;SDS011;19795;53.160;6.612;2023-09-30T17:28:47;1999.90;;;999.90;;
33459;SDS011;19795;53.160;6.612;2023-09-30T17:31:14;1999.90;;;999.90;;
33459;SDS011;19795;53.160;6.612;2023-09-30T17:33:40;1999.90;;;999.90;;
33459;SDS011;19795;53.160;6.612;2023-09-30T17:36:06;1999.90;;;999.90;;
33459;SDS011;19795;53.160;6.612;2023-09-30T17:38:32;1999.90;;;999.90;;
33459;SDS011;19795;53.160;6.612;2023-09-30T17:41:00;1999.90;;;999.90;;
33459;SDS011;19795;53.160;6.612;2023-09-30T17:43:35;1999.90;;;999.90;;
33459;SDS011;19795;53.160;6.612;2023-09-30T17:48:44;1999.90;;;999.90;;
33459;SDS011;19795;53.160;6.612;2023-09-30T17:51:17;1999.90;;;999.90;;
33459;SDS011;19795;53.160;6.612;2023-09-30T17:53:48;1999.90;;;999.90;;
33459;SDS011;19795;53.160;6.612;2023-09-30T17:56:18;1999.90;;;999.90;;
33459;SDS011;19795;53.160;6.612;2023-09-30T17:58:45;1999.90;;;999.90;;
33459;SDS011;19795;53.160;6.612;2023-09-30T18:01:15;1999.90;;;999.90;;
33459;SDS011;19795;53.160;6.612;2023-09-30T18:03:44;1999.90;;;999.90;;
33459;SDS011;19795;53.160;6.612;2023-09-30T18:06:11;1999.90;;;999.90;;
33459;SDS011;19795;53.160;6.612;2023-09-30T18:08:38;1999.90;;;999.90;;
33459;SDS011;19795;53.160;6.612;2023-09-30T18:11:07;1999.90;;;999.90;;
33459;SDS011;19795;53.160;6.612;2023-09-30T18:13:34;1999.90;;;999.90;;
33459;SDS011;19795;53.160;6.612;2023-09-30T18:16:01;1999.90;;;999.90;;
33459;SDS011;19795;53.160;6.612;2023-09-30T18:18:28;1999.90;;;999.90;;
33459;SDS011;19795;53.160;6.612;2023-09-30T18:20:54;1999.90;;;999.90;;
33459;SDS011;19795;53.160;6.612;2023-09-30T18:23:20;1999.90;;;999.90;;
33459;SDS011;19795;53.160;6.612;2023-09-30T18:25:46;1999.90;;;999.90;;
33459;SDS011;19795;53.160;6.612;2023-09-30T18:28:12;1999.90;;;999.90;;
33459;SDS011;19795;53.160;6.612;2023-09-30T18:30:41;1999.90;;;999.90;;
33459;SDS011;19795;53.160;6.612;2023-09-30T18:33:09;1999.90;;;999.90;;
33459;SDS011;19795;53.160;6.612;2023-09-30T18:35:38;1999.90;;;999.90;;
33459;SDS011;19795;53.160;6.612;2023-09-30T18:38:09;1999.90;;;999.90;;
33459;SDS011;19795;53.160;6.612;2023-09-30T18:40:36;1999.90;;;999.90;;
33459;SDS011;19795;53.160;6.612;2023-09-30T18:43:06;1999.90;;;999.90;;
33459;SDS011;19795;53.160;6.612;2023-09-30T18:45:40;1999.90;;;999.90;;
33459;SDS011;19795;53.160;6.612;2023-09-30T18:48:06;1999.90;;;999.90;;
33459;SDS011;19795;53.160;6.612;2023-09-30T18:50:40;1999.90;;;999.90;;
33459;SDS011;19795;53.160;6.612;2023-09-30T18:53:14;1999.90;;;999.90;;
33459;SDS011;19795;53.160;6.612;2023-09-30T18:55:41;1999.90;;;999.90;;
33459;SDS011;19795;53.160;6.612;2023-09-30T18:58:08;1999.90;;;999.90;;
33459;SDS011;19795;53.160;6.612;2023-09-30T19:00:35;1999.90;;;999.90;;
33459;SDS011;19795;53.160;6.612;2023-09-30T19:03:03;1999.90;;;999.90;;
33459;SDS011;19795;53.160;6.612;2023-09-30T19:05:31;1999.90;;;999.90;;
33459;SDS011;19795;53.160;6.612;2023-09-30T19:08:01;1999.90;;;999.90;;
33459;SDS011;19795;53.160;6.612;2023-09-30T19:10:27;1999.90;;;999.90;;
33459;SDS011;19795;53.160;6.612;2023-09-30T19:12:53;1999.90;;;999.90;;
33459;SDS011;19795;53.160;6.612;2023-09-30T19:15:19;1999.90;;;999.90;;
33459;SDS011;19795;53.160;6.612;2023-09-30T19:17:44;1999.90;;;999.90;;
33459;SDS011;19795;53.160;6.612;2023-09-30T19:20:10;1999.90;;;999.90;;
33459;SDS011;19795;53.160;6.612;2023-09-30T19:22:37;1999.90;;;999.90;;
33459;SDS011;19795;53.160;6.612;2023-09-30T19:25:06;1999.90;;;999.90;;
33459;SDS011;19795;53.160;6.612;2023-09-30T19:27:32;1999.90;;;999.90;;
33459;SDS011;19795;53.160;6.612;2023-09-30T19:29:58;1999.90;;;999.90;;
33459;SDS011;19795;53.160;6.612;2023-09-30T19:32:25;1999.90;;;999.90;;
33459;SDS011;19795;53.160;6.612;2023-09-30T19:34:51;1999.90;;;999.90;;
33459;SDS011;19795;53.160;6.612;2023-09-30T19:37:18;1999.90;;;999.90;;
33459;SDS011;19795;53.160;6.612;2023-09-30T19:39:43;1999.90;;;999.90;;
33459;SDS011;19795;53.160;6.612;2023-09-30T19:42:09;1999.90;;;999.90;;
33459;SDS011;19795;53.160;6.612;2023-09-30T19:44:35;1999.90;;;999.90;;
33459;SDS011;19795;53.160;6.612;2023-09-30T19:47:03;1999.90;;;999.90;;
33459;SDS011;19795;53.160;6.612;2023-09-30T19:49:33;1999.90;;;999.90;;
33459;SDS011;19795;53.160;6.612;2023-09-30T19:51:59;1999.90;;;999.90;;
33459;SDS011;19795;53.160;6.612;2023-09-30T19:54:25;1999.90;;;999.90;;
33459;SDS011;19795;53.160;6.612;2023-09-30T19:56:51;1999.90;;;999.90;;
33459;SDS011;19795;53.160;6.612;2023-09-30T19:59:17;1999.90;;;999.90;;
33459;SDS011;19795;53.160;6.612;2023-09-30T20:01:42;1999.90;;;999.90;;
33459;SDS011;19795;53.160;6.612;2023-09-30T20:04:08;1999.90;;;999.90;;
33459;SDS011;19795;53.160;6.612;2023-09-30T20:06:35;1999.90;;;999.90;;
33459;SDS011;19795;53.160;6.612;2023-09-30T20:09:01;1999.90;;;999.90;;
33459;SDS011;19795;53.160;6.612;2023-09-30T20:11:29;1999.90;;;999.90;;
33459;SDS011;19795;53.160;6.612;2023-09-30T20:13:55;1999.90;;;999.90;;
33459;SDS011;19795;53.160;6.612;2023-09-30T20:16:23;1999.90;;;999.90;;
33459;SDS011;19795;53.160;6.612;2023-09-30T20:18:49;1999.90;;;999.90;;
33459;SDS011;19795;53.160;6.612;2023-09-30T20:21:15;1999.90;;;999.90;;
33459;SDS011;19795;53.160;6.612;2023-09-30T20:23:42;1999.90;;;999.90;;
33459;SDS011;19795;53.160;6.612;2023-09-30T20:26:08;1999.90;;;999.90;;
33459;SDS011;19795;53.160;6.612;2023-09-30T20:28:38;1999.90;;;999.90;;
33459;SDS011;19795;53.160;6.612;2023-09-30T20:31:04;1999.90;;;999.90;;
33459;SDS011;19795;53.160;6.612;2023-09-30T20:33:30;1999.90;;;999.90;;
33459;SDS011;19795;53.160;6.612;2023-09-30T20:35:55;1999.90;;;999.90;;
33459;SDS011;19795;53.160;6.612;2023-09-30T20:38:21;1999.90;;;999.90;;
33459;SDS011;19795;53.160;6.612;2023-09-30T20:40:47;1999.90;;;999.90;;
33459;SDS011;19795;53.160;6.612;2023-09-30T20:43:13;1999.90;;;999.90;;
33459;SDS011;19795;53.160;6.612;2023-09-30T20:45:40;1999.90;;;999.90;;
33459;SDS011;19795;53.160;6.612;2023-09-30T20:48:06;1999.90;;;999.90;;
33459;SDS011;19795;53.160;6.612;2023-09-30T20:50:32;1999.90;;;999.90;;
33459;SDS011;19795;53.160;6.612;2023-09-30T20:52:58;1999.90;;;999.90;;
33459;SDS011;19795;53.160;6.612;2023-09-30T20:55:26;1999.90;;;999.90;;
33459;SDS011;19795;53.160;6.612;2023-09-30T20:57:56;1999.90;;;999.90;;
33459;SDS011;19795;53.160;6.612;2023-09-30T21:00:22;1999.90;;;999.90;;
33459;SDS011;19795;53.160;6.612;2023-09-30T21:02:48;1999.90;;;999.90;;
33459;SDS011;19795;53.160;6.612;2023-09-30T21:05:14;1999.90;;;999.90;;
33459;SDS011;19795;53.160;6.612;2023-09-30T21:07:39;1999.90;;;999.90;;
33459;SDS011;19795;53.160;6.612;2023-09-30T21:10:06;1999.90;;;999.90;;
33459;SDS011;19795;53.160;6.612;2023-09-30T21:12:31;1999.90;;;999.90;;
33459;SDS011;19795;53.160;6.612;2023-09-30T21:14:57;1999.90;;;999.90;;